createdAt,value
2023-01-23T00:01:37.797Z,101833.59
2023-01-23T00:04:05.865Z,101843.31
2023-01-23T00:06:34.503Z,101830.06
2023-01-23T00:09:02.443Z,101841.56
2023-01-23T00:11:32.027Z,101838.91
2023-01-23T00:14:02.361Z,101827.44
2023-01-23T00:16:32.927Z,101833.59
2023-01-23T00:19:01.600Z,101826.53
2023-01-23T00:21:30.466Z,101823.03
2023-01-23T00:24:01.397Z,101815.06
2023-01-23T00:26:32.775Z,101822.06
2023-01-23T00:29:00.742Z,101826.38
2023-01-23T00:31:39.669Z,101822.03
2023-01-23T00:34:15.091Z,101816.69
2023-01-23T00:36:44.915Z,101819.34
2023-01-23T00:39:20.328Z,101813.19
2023-01-23T00:41:49.600Z,101815.00
2023-01-23T00:44:17.988Z,101814.09
2023-01-23T00:46:45.935Z,101819.44
2023-01-23T00:49:14.047Z,101813.22
2023-01-23T00:51:41.918Z,101799.97
2023-01-23T00:54:09.749Z,101817.66
2023-01-23T00:56:37.758Z,101832.63
2023-01-23T00:59:05.667Z,101830.00
2023-01-23T01:01:33.590Z,101837.06
2023-01-23T01:04:01.782Z,101826.47
2023-01-23T01:06:30.320Z,101836.19
2023-01-23T01:09:00.235Z,101830.91
2023-01-23T01:11:27.947Z,101837.09
2023-01-23T01:14:00.236Z,101839.59
2023-01-23T01:16:28.052Z,101834.38
2023-01-23T01:18:55.936Z,101838.81
2023-01-23T01:21:24.021Z,101839.72
2023-01-23T01:23:51.779Z,101843.22
2023-01-23T01:26:19.725Z,101839.66
2023-01-23T01:28:49.036Z,101840.56
2023-01-23T01:31:17.383Z,101845.81
2023-01-23T01:33:45.399Z,101851.13
2023-01-23T01:36:18.719Z,101851.09
2023-01-23T01:38:48.514Z,101837.88
2023-01-23T01:41:17.319Z,101848.47
2023-01-23T01:43:45.107Z,101853.75
2023-01-23T01:46:28.142Z,101852.00
2023-01-23T01:49:12.703Z,101845.78
2023-01-23T01:52:05.219Z,101851.91
2023-01-23T01:54:39.202Z,101845.72
2023-01-23T01:57:14.038Z,101860.69
2023-01-23T02:00:18.743Z,101859.81
2023-01-23T02:02:58.828Z,101851.81
2023-01-23T02:05:45.354Z,101857.97
2023-01-23T02:08:44.467Z,101861.47
2023-01-23T02:11:15.016Z,101863.22
2023-01-23T02:13:43.687Z,101852.59
2023-01-23T02:16:18.607Z,101856.16
2023-01-23T02:18:50.950Z,101856.19
2023-01-23T02:21:25.374Z,101857.06
2023-01-23T02:24:17.420Z,101867.66
2023-01-23T02:26:46.817Z,101863.19
2023-01-23T02:29:16.321Z,101860.59
2023-01-23T02:31:56.263Z,101871.16
2023-01-23T02:34:26.033Z,101866.72
2023-01-23T02:36:58.303Z,101865.84
2023-01-23T02:39:27.470Z,101862.31
2023-01-23T02:41:57.159Z,101869.34
2023-01-23T02:44:58.006Z,101863.09
2023-01-23T02:47:45.567Z,101875.44
2023-01-23T02:50:33.376Z,101871.94
2023-01-23T02:53:01.520Z,101864.84
2023-01-23T02:55:37.817Z,101865.78
2023-01-23T02:58:44.795Z,101861.31
2023-01-23T03:01:12.605Z,101859.56
2023-01-23T03:03:44.243Z,101866.66
2023-01-23T03:06:12.585Z,101872.84
2023-01-23T03:08:47.917Z,101869.34
2023-01-23T03:11:19.107Z,101864.00
2023-01-23T03:13:48.011Z,101872.88
2023-01-23T03:16:16.104Z,101864.91
2023-01-23T03:18:53.855Z,101869.34
2023-01-23T03:21:22.392Z,101852.59
2023-01-23T03:23:50.303Z,101858.78
2023-01-23T03:26:19.077Z,101860.53
2023-01-23T03:29:07.599Z,101843.72
2023-01-23T03:31:35.966Z,101862.25
2023-01-23T03:34:03.917Z,101861.38
2023-01-23T03:36:37.325Z,101854.28
2023-01-23T03:39:27.186Z,101857.03
2023-01-23T03:41:55.907Z,101859.66
2023-01-23T03:44:26.376Z,101856.09
2023-01-23T03:46:54.275Z,101837.63
2023-01-23T03:49:23.347Z,101846.47
2023-01-23T03:51:58.447Z,101847.41
2023-01-23T03:54:27.062Z,101839.44
2023-01-23T03:56:55.385Z,101850.94
2023-01-23T03:59:48.989Z,101854.44
2023-01-23T04:02:20.111Z,101857.97
2023-01-23T04:04:48.223Z,101867.66
2023-01-23T04:07:16.243Z,101859.72
2023-01-23T04:09:45.336Z,101863.28
2023-01-23T04:12:13.203Z,101867.69
2023-01-23T04:14:44.510Z,101850.88
2023-01-23T04:17:14.675Z,101870.34
2023-01-23T04:19:42.595Z,101866.81
2023-01-23T04:22:10.424Z,101856.16
2023-01-23T04:24:47.928Z,101863.25
2023-01-23T04:27:16.604Z,101880.00
2023-01-23T04:29:44.485Z,101873.81
2023-01-23T04:32:12.609Z,101888.81
2023-01-23T04:34:45.479Z,101883.53
2023-01-23T04:37:13.453Z,101881.66
2023-01-23T04:39:42.129Z,101895.78
2023-01-23T04:42:10.238Z,101901.13
2023-01-23T04:44:58.863Z,101900.22
2023-01-23T04:47:45.095Z,101918.75
2023-01-23T04:50:16.287Z,101910.81
2023-01-23T04:52:47.035Z,101919.66
2023-01-23T04:55:15.070Z,101913.50
2023-01-23T04:57:44.669Z,101918.78
2023-01-23T05:00:26.406Z,101924.00
2023-01-23T05:02:54.469Z,101916.91
2023-01-23T05:05:22.849Z,101918.66
2023-01-23T05:07:53.155Z,101915.09
2023-01-23T05:10:21.360Z,101914.22
2023-01-23T05:12:50.256Z,101912.38
2023-01-23T05:15:18.643Z,101908.81
2023-01-23T05:17:49.097Z,101912.28
2023-01-23T05:20:18.037Z,101913.16
2023-01-23T05:22:52.651Z,101914.91
2023-01-23T05:25:27.334Z,101917.50
2023-01-23T05:27:56.675Z,101915.69
2023-01-23T05:30:26.385Z,101918.31
2023-01-23T05:33:03.089Z,101920.91
2023-01-23T05:35:31.291Z,101917.38
2023-01-23T05:37:59.218Z,101912.97
2023-01-23T05:40:27.599Z,101926.25
2023-01-23T05:43:23.990Z,101931.47
2023-01-23T05:46:10.177Z,101930.56
2023-01-23T05:48:57.221Z,101921.72
2023-01-23T05:51:31.567Z,101932.31
2023-01-23T05:54:01.521Z,101917.31
2023-01-23T05:56:29.556Z,101914.69
2023-01-23T05:59:15.820Z,101917.25
2023-01-23T06:01:49.357Z,101924.41
2023-01-23T06:04:35.518Z,101919.91
2023-01-23T06:07:15.422Z,101927.88
2023-01-23T06:09:43.565Z,101925.19
2023-01-23T06:12:12.153Z,101933.09
2023-01-23T06:14:40.507Z,101932.16
2023-01-23T06:17:08.815Z,101925.97
2023-01-23T06:19:39.347Z,101917.88
2023-01-23T06:22:07.225Z,101931.94
2023-01-23T06:24:48.147Z,101933.63
2023-01-23T06:27:15.956Z,101928.34
2023-01-23T06:29:43.724Z,101930.97
2023-01-23T06:32:11.495Z,101943.28
2023-01-23T06:34:39.584Z,101943.28
2023-01-23T06:37:07.625Z,101942.41
2023-01-23T06:39:35.473Z,101951.16
2023-01-23T06:42:09.835Z,101944.91
2023-01-23T06:44:41.181Z,101936.94
2023-01-23T06:47:08.924Z,101953.72
2023-01-23T06:49:36.900Z,101943.94
2023-01-23T06:52:05.114Z,101956.28
2023-01-23T06:54:32.960Z,101966.00
2023-01-23T06:57:04.462Z,101959.78
2023-01-23T06:59:32.678Z,101964.16
2023-01-23T07:02:02.815Z,101965.03
2023-01-23T07:04:43.532Z,101991.41
2023-01-23T07:07:12.779Z,101986.13
2023-01-23T07:09:42.181Z,102002.03
2023-01-23T07:12:15.086Z,102000.28
2023-01-23T07:14:42.798Z,102015.28
2023-01-23T07:17:12.918Z,102010.88
2023-01-23T07:19:41.238Z,102021.44
2023-01-23T07:22:12.867Z,102011.75
2023-01-23T07:24:40.584Z,102009.94
2023-01-23T07:27:08.277Z,102018.81
2023-01-23T07:29:35.954Z,102019.59
2023-01-23T07:32:03.847Z,102017.91
2023-01-23T07:34:31.699Z,102017.91
2023-01-23T07:36:59.519Z,102039.00
2023-01-23T07:39:27.367Z,102033.75
2023-01-23T07:41:55.420Z,102031.16
2023-01-23T07:44:28.388Z,102034.69
2023-01-23T07:46:57.484Z,102031.19
2023-01-23T07:49:25.448Z,102033.00
2023-01-23T07:51:53.516Z,102026.78
2023-01-23T07:54:21.417Z,102030.38
2023-01-23T07:56:50.985Z,102032.22
2023-01-23T07:59:18.786Z,102035.72
2023-01-23T08:01:46.748Z,102034.91
2023-01-23T08:04:15.301Z,102034.03
2023-01-23T08:06:43.113Z,102033.16
2023-01-23T08:09:11.145Z,102020.84
2023-01-23T08:11:39.769Z,102023.56
2023-01-23T08:14:07.460Z,102017.41
2023-01-23T08:16:35.238Z,102025.41
2023-01-23T08:19:08.414Z,102029.03
2023-01-23T08:21:36.598Z,102021.13
2023-01-23T08:24:05.118Z,102023.84
2023-01-23T08:26:33.475Z,102035.34
2023-01-23T08:29:01.226Z,102008.91
2023-01-23T08:31:29.327Z,102024.84
2023-01-23T08:33:57.391Z,102027.56
2023-01-23T08:36:25.305Z,102017.88
2023-01-23T08:38:53.235Z,102016.13
2023-01-23T08:41:21.007Z,102024.09
2023-01-23T08:43:49.246Z,102016.13
2023-01-23T08:46:24.727Z,102020.53
2023-01-23T08:48:52.404Z,102010.72
2023-01-23T08:51:20.224Z,102011.50
2023-01-23T08:53:48.054Z,102028.25
2023-01-23T08:56:18.652Z,102023.78
2023-01-23T08:58:47.080Z,102029.03
2023-01-23T09:01:24.224Z,102022.00
2023-01-23T09:03:52.273Z,102028.19
2023-01-23T09:06:21.966Z,102032.63
2023-01-23T09:08:49.789Z,102035.22
2023-01-23T09:11:18.675Z,102022.03
2023-01-23T09:13:47.425Z,102026.47
2023-01-23T09:16:16.531Z,102027.44
2023-01-23T09:18:44.607Z,102019.50
2023-01-23T09:21:16.904Z,102023.97
2023-01-23T09:23:44.617Z,102031.00
2023-01-23T09:26:15.079Z,102033.66
2023-01-23T09:28:43.237Z,102031.88
2023-01-23T09:31:13.899Z,102041.69
2023-01-23T09:33:42.332Z,102049.56
2023-01-23T09:36:10.757Z,102039.94
2023-01-23T09:38:38.768Z,102047.03
2023-01-23T09:41:20.250Z,102049.75
2023-01-23T09:44:07.397Z,102051.56
2023-01-23T09:46:49.885Z,102028.56
2023-01-23T09:49:31.079Z,102051.63
2023-01-23T09:52:24.593Z,102045.47
2023-01-23T09:55:12.316Z,102042.88
2023-01-23T09:57:49.759Z,102017.31
2023-01-23T10:00:30.021Z,102029.72
2023-01-23T10:03:03.277Z,102029.75
2023-01-23T10:06:04.956Z,102046.59
2023-01-23T10:09:05.922Z,102038.69
2023-01-23T10:11:51.691Z,102038.72
2023-01-23T10:14:26.596Z,102037.88
2023-01-23T10:17:08.256Z,102037.03
2023-01-23T10:20:16.524Z,102040.50
2023-01-23T10:23:11.443Z,102038.75
2023-01-23T10:25:43.735Z,102037.84
2023-01-23T10:28:35.189Z,102050.22
2023-01-23T10:31:23.816Z,102051.94
2023-01-23T10:34:10.202Z,102055.47
2023-01-23T10:37:25.405Z,102048.41
2023-01-23T10:40:12.636Z,102041.25
2023-01-23T10:42:40.824Z,102046.59
2023-01-23T10:45:19.641Z,102037.78
2023-01-23T10:47:54.659Z,102048.34
2023-01-23T10:50:39.445Z,102051.13
2023-01-23T10:53:19.076Z,102049.28
2023-01-23T10:55:48.044Z,102053.69
2023-01-23T10:58:44.829Z,102057.28
2023-01-23T11:01:32.398Z,102054.56
2023-01-23T11:04:18.469Z,102061.63
2023-01-23T11:07:29.066Z,102038.66
2023-01-23T11:10:20.700Z,102048.41
2023-01-23T11:12:57.898Z,102053.75
2023-01-23T11:15:38.507Z,102050.25
2023-01-23T11:18:35.918Z,102056.41
2023-01-23T11:21:03.923Z,102052.81
2023-01-23T11:23:33.782Z,102052.00
2023-01-23T11:26:03.194Z,102025.53
2023-01-23T11:28:46.697Z,102040.69
2023-01-23T11:31:20.150Z,102033.72
2023-01-23T11:34:12.300Z,102038.13
2023-01-23T11:37:10.986Z,102031.13
2023-01-23T11:40:15.215Z,102043.41
2023-01-23T11:42:44.519Z,102031.03
2023-01-23T11:45:48.810Z,102032.94
2023-01-23T11:48:24.811Z,102033.84
2023-01-23T11:51:07.816Z,102021.56
2023-01-23T11:53:50.328Z,102001.19
2023-01-23T11:56:39.039Z,102012.75
2023-01-23T11:59:41.884Z,101997.84
2023-01-23T12:02:25.221Z,102004.09
2023-01-23T12:05:05.870Z,101988.31
2023-01-23T12:07:53.997Z,101985.66
2023-01-23T12:10:46.240Z,101990.06
2023-01-23T12:13:51.428Z,101990.94
2023-01-23T12:16:48.678Z,101996.19
2023-01-23T12:19:20.899Z,101997.09
2023-01-23T12:22:12.746Z,101980.38
2023-01-23T12:25:18.897Z,101983.03
2023-01-23T12:27:50.313Z,101977.69
2023-01-23T12:31:22.147Z,101974.16
2023-01-23T12:34:35.536Z,101973.22
2023-01-23T12:37:31.122Z,101962.63
2023-01-23T12:40:52.899Z,101961.78
2023-01-23T12:44:01.598Z,101957.34
2023-01-23T12:46:46.978Z,101956.47
2023-01-23T12:49:40.678Z,101945.91
2023-01-23T12:52:23.797Z,101942.41
2023-01-23T12:55:21.550Z,101951.25
2023-01-23T12:58:11.136Z,101953.03
2023-01-23T13:01:15.126Z,101948.63
2023-01-23T13:04:23.159Z,101944.19
2023-01-23T13:07:32.850Z,101948.59
2023-01-23T13:10:50.577Z,101931.88
2023-01-23T13:13:20.035Z,101947.75
2023-01-23T13:16:16.264Z,101945.16
2023-01-23T13:19:18.351Z,101941.69
2023-01-23T13:22:26.993Z,101930.03
2023-01-23T13:25:14.364Z,101934.56
2023-01-23T13:28:00.004Z,101931.06
2023-01-23T13:30:32.711Z,101936.34
2023-01-23T13:33:21.413Z,101939.91
2023-01-23T13:35:50.634Z,101939.94
2023-01-23T13:38:21.640Z,101942.63
2023-01-23T13:41:18.598Z,101946.13
2023-01-23T13:43:50.076Z,101936.47
2023-01-23T14:22:18.781Z,101924.09
2023-01-23T14:24:55.061Z,101917.94
2023-01-23T14:27:44.434Z,101917.06
2023-01-23T14:30:26.247Z,101914.41
2023-01-23T14:32:54.901Z,101913.50
2023-01-23T14:35:32.204Z,101896.75
2023-01-23T14:38:05.299Z,101902.09
2023-01-23T14:40:48.926Z,101896.81
2023-01-23T14:43:22.393Z,101902.09
2023-01-23T14:46:13.929Z,101891.50
2023-01-23T14:49:03.742Z,101889.72
2023-01-23T14:51:31.829Z,101874.69
2023-01-23T14:54:05.165Z,101892.31
2023-01-23T14:56:39.203Z,101898.53
2023-01-23T14:59:25.640Z,101909.09
2023-01-23T15:01:59.919Z,101901.16
2023-01-23T15:04:31.262Z,101902.97
2023-01-23T15:07:01.631Z,101906.50
2023-01-23T15:09:41.305Z,101908.22
2023-01-23T15:12:17.205Z,101917.97
2023-01-23T15:14:45.651Z,101905.59
2023-01-23T15:17:22.934Z,101909.16
2023-01-23T15:19:55.536Z,101918.88
2023-01-23T15:22:29.311Z,101924.16
2023-01-23T15:24:57.508Z,101926.78
2023-01-23T15:27:37.337Z,101917.97
2023-01-23T15:30:50.050Z,101924.16
2023-01-23T15:33:34.637Z,101921.47
2023-01-23T15:36:08.978Z,101915.31
2023-01-23T15:38:36.806Z,101937.38
2023-01-23T15:41:10.639Z,101926.81
2023-01-23T15:43:38.591Z,101933.88
2023-01-23T15:46:12.907Z,101934.75
2023-01-23T15:48:40.771Z,101935.66
2023-01-23T15:51:12.227Z,101928.59
2023-01-23T15:53:39.956Z,101940.06
2023-01-23T15:56:30.384Z,101936.56
2023-01-23T15:59:00.610Z,101948.91
2023-01-23T16:01:29.293Z,101938.34
2023-01-23T16:03:58.194Z,101940.97
2023-01-23T16:06:26.192Z,101940.94
2023-01-23T16:09:00.842Z,101946.25
2023-01-23T16:11:35.094Z,101947.97
2023-01-23T16:14:02.910Z,101942.72
2023-01-23T16:16:30.654Z,101929.47
2023-01-23T16:18:58.369Z,101948.03
2023-01-23T16:21:30.335Z,101936.56
2023-01-23T16:23:58.792Z,101943.63
2023-01-23T16:26:27.987Z,101949.78
2023-01-23T16:29:12.146Z,101946.28
2023-01-23T16:31:41.101Z,101933.91
2023-01-23T16:34:08.827Z,101938.31
2023-01-23T16:36:36.693Z,101932.09
2023-01-23T16:39:06.115Z,101932.06
2023-01-23T16:41:33.891Z,101952.38
2023-01-23T16:44:01.644Z,101946.22
2023-01-23T16:46:29.487Z,101947.09
2023-01-23T16:48:57.309Z,101947.09
2023-01-23T16:51:25.797Z,101953.22
2023-01-23T16:54:02.287Z,101946.19
2023-01-23T16:56:39.256Z,101952.34
2023-01-23T16:59:15.209Z,101945.28
2023-01-23T17:01:46.097Z,101939.06
2023-01-23T17:04:18.504Z,101947.88
2023-01-23T17:06:46.618Z,101949.66
2023-01-23T17:09:15.959Z,101947.88
2023-01-23T17:11:50.442Z,101962.88
2023-01-23T17:14:28.934Z,101960.22
2023-01-23T17:17:10.997Z,101969.91
2023-01-23T17:19:41.530Z,101960.19
2023-01-23T17:22:23.942Z,101961.94
2023-01-23T17:24:51.800Z,101972.53
2023-01-23T17:27:19.726Z,101951.31
2023-01-23T17:29:48.311Z,101969.00
2023-01-23T17:32:35.777Z,101971.69
2023-01-23T17:35:08.805Z,101965.50
2023-01-23T17:37:36.581Z,101975.19
2023-01-23T17:40:04.964Z,101970.84
2023-01-23T17:42:32.839Z,101975.25
2023-01-23T17:45:00.678Z,101978.75
2023-01-23T17:47:29.657Z,101973.47
2023-01-23T17:49:58.189Z,101978.78
2023-01-23T17:52:28.677Z,101980.56
2023-01-23T17:54:56.416Z,101980.56
2023-01-23T17:57:24.148Z,101972.66
2023-01-23T17:59:55.481Z,101983.28
2023-01-23T18:02:27.934Z,101974.41
2023-01-23T18:04:56.348Z,101986.78
2023-01-23T18:07:24.394Z,101979.75
2023-01-23T18:09:53.929Z,101986.81
2023-01-23T18:12:37.257Z,101993.00
2023-01-23T18:15:19.077Z,101990.28
2023-01-23T18:18:05.232Z,102000.91
2023-01-23T18:20:33.850Z,101998.19
2023-01-23T18:23:02.387Z,101999.09
2023-01-23T18:25:31.169Z,102000.88
2023-01-23T18:28:08.353Z,101992.94
2023-01-23T18:31:03.928Z,101997.31
2023-01-23T18:33:43.683Z,102001.72
2023-01-23T18:36:44.838Z,101995.53
2023-01-23T18:39:44.082Z,101992.88
2023-01-23T18:42:21.048Z,101984.00
2023-01-23T18:44:58.535Z,102003.47
2023-01-23T18:47:27.041Z,101994.66
2023-01-23T18:49:55.177Z,101990.22
2023-01-23T18:52:51.141Z,101999.06
2023-01-23T18:55:47.260Z,101999.03
2023-01-23T18:59:09.721Z,101987.53
2023-01-23T19:02:26.591Z,101995.41
2023-01-23T19:05:30.191Z,101991.78
2023-01-23T19:07:59.894Z,101982.09
2023-01-23T19:10:40.153Z,101982.13
2023-01-23T19:13:25.100Z,101974.22
2023-01-23T19:16:32.526Z,101975.06
2023-01-23T19:19:23.801Z,101983.88
2023-01-23T19:21:51.960Z,101979.34
2023-01-23T19:24:20.754Z,101995.28
2023-01-23T19:26:50.122Z,102000.59
2023-01-23T19:29:22.885Z,101994.41
2023-01-23T19:32:07.081Z,101992.63
2023-01-23T19:34:35.278Z,101997.91
2023-01-23T19:37:04.695Z,101991.75
2023-01-23T19:39:32.484Z,101996.19
2023-01-23T19:42:00.430Z,101981.09
2023-01-23T19:44:30.007Z,101991.75
2023-01-23T19:46:58.002Z,101991.78
2023-01-23T19:49:25.864Z,102000.59
2023-01-23T19:51:53.633Z,101993.59
2023-01-23T19:54:24.040Z,101991.78
2023-01-23T19:56:52.493Z,102000.59
2023-01-23T19:59:20.899Z,101989.06
2023-01-23T20:01:52.350Z,102010.34
2023-01-23T20:04:23.637Z,102000.69
2023-01-23T20:06:54.594Z,101986.59
2023-01-23T20:09:22.360Z,101989.22
2023-01-23T20:11:52.255Z,101988.38
2023-01-23T20:14:22.124Z,101985.75
2023-01-23T20:16:49.983Z,101982.22
2023-01-23T20:19:18.669Z,101977.78
2023-01-23T20:21:48.528Z,101988.38
2023-01-23T20:24:16.757Z,101987.47
2023-01-23T20:26:46.187Z,101990.16
2023-01-23T20:29:15.330Z,101992.78
2023-01-23T20:31:43.092Z,101987.50
2023-01-23T20:34:11.012Z,101983.09
2023-01-23T20:36:40.108Z,101983.09
2023-01-23T20:39:07.877Z,101970.69
2023-01-23T20:41:36.153Z,101983.06
2023-01-23T20:44:03.939Z,101980.41
2023-01-23T20:46:32.168Z,101997.19
2023-01-23T20:49:01.565Z,101988.34
2023-01-23T20:51:30.291Z,101989.25
2023-01-23T20:53:58.116Z,101987.47
2023-01-23T20:56:28.057Z,101988.31
2023-01-23T20:59:15.562Z,101997.13
2023-01-23T21:02:03.364Z,102007.78
2023-01-23T21:04:35.131Z,102015.69
2023-01-23T21:07:04.408Z,102010.41
2023-01-23T21:09:32.413Z,102013.06
2023-01-23T21:12:00.389Z,102004.25
2023-01-23T21:14:28.371Z,102001.59
2023-01-23T21:16:56.122Z,102003.38
2023-01-23T21:19:24.165Z,101987.50
2023-01-23T21:21:51.883Z,102000.72
2023-01-23T21:24:19.836Z,102013.09
2023-01-23T21:26:47.676Z,102003.41
2023-01-23T21:29:15.530Z,102016.63
2023-01-23T21:31:43.565Z,102022.78
2023-01-23T21:34:14.058Z,102021.91
2023-01-23T21:36:42.727Z,102024.59
2023-01-23T21:39:14.688Z,102026.34
2023-01-23T21:41:42.710Z,102035.13
2023-01-23T21:44:13.861Z,102028.13
2023-01-23T21:46:41.907Z,102044.84
2023-01-23T21:49:09.848Z,102034.28
2023-01-23T21:51:37.657Z,102033.41
2023-01-23T21:54:05.761Z,102038.69
2023-01-23T21:56:33.484Z,102051.03
2023-01-23T21:59:01.424Z,102028.09
2023-01-23T22:01:32.113Z,102049.28
2023-01-23T22:04:11.500Z,102035.13
2023-01-23T22:06:42.745Z,102036.06
2023-01-23T22:09:17.045Z,102042.22
2023-01-23T22:11:48.869Z,102040.47
2023-01-23T22:14:18.296Z,102043.09
2023-01-23T22:16:49.694Z,102048.41
2023-01-23T22:19:23.346Z,102048.31
2023-01-23T22:21:57.114Z,102034.25
2023-01-23T22:24:25.236Z,102044.81
2023-01-23T22:26:53.103Z,102060.69
2023-01-23T22:29:22.764Z,102058.06
2023-01-23T22:31:52.116Z,102052.72
2023-01-23T22:34:20.055Z,102038.63
2023-01-23T22:36:47.912Z,102044.78
2023-01-23T22:39:19.923Z,102052.72
2023-01-23T22:41:48.177Z,102056.25
2023-01-23T22:44:17.012Z,102073.88
2023-01-23T22:46:45.056Z,102055.41
2023-01-23T22:49:12.857Z,102067.75
2023-01-23T22:51:40.709Z,102057.16
2023-01-23T22:54:08.546Z,102043.03
2023-01-23T22:56:36.347Z,102054.53
2023-01-23T22:59:04.242Z,102060.72
2023-01-23T23:01:32.100Z,102058.94
2023-01-23T23:04:00.652Z,102058.94
2023-01-23T23:06:28.854Z,102062.47
2023-01-23T23:08:57.215Z,102047.44
2023-01-23T23:11:32.930Z,102058.09
2023-01-23T23:14:00.861Z,102044.81
2023-01-23T23:16:31.995Z,102047.47
2023-01-23T23:19:02.469Z,102031.56
2023-01-23T23:21:36.090Z,102043.06
2023-01-23T23:24:07.448Z,102049.19
2023-01-23T23:26:35.881Z,102050.97
2023-01-23T23:29:04.503Z,102051.84
2023-01-23T23:31:32.735Z,102049.16
2023-01-23T23:34:00.580Z,102035.00
2023-01-23T23:36:28.635Z,102052.72
2023-01-23T23:38:56.324Z,102050.97
2023-01-23T23:41:24.566Z,102035.94
2023-01-23T23:43:52.406Z,102038.63
2023-01-23T23:46:20.182Z,102035.09
2023-01-23T23:48:48.120Z,102028.84
2023-01-23T23:51:18.834Z,102037.75
2023-01-23T23:53:46.942Z,102017.38
2023-01-23T23:56:23.473Z,102038.63
2023-01-23T23:58:53.065Z,102053.56
